createdAt,value
2019-04-25T00:00:09.795Z,14.72
2019-04-25T00:02:43.952Z,14.79
2019-04-25T00:05:16.103Z,14.74
2019-04-25T00:07:47.142Z,14.82
2019-04-25T00:10:18.052Z,14.75
2019-04-25T00:12:48.712Z,14.68
2019-04-25T00:15:19.821Z,14.68
2019-04-25T00:17:52.120Z,14.63
2019-04-25T00:20:23.064Z,14.63
2019-04-25T00:23:02.005Z,14.57
2019-04-25T00:25:52.709Z,14.53
2019-04-25T00:28:23.572Z,14.47
2019-04-25T00:30:54.231Z,14.42
2019-04-25T00:33:24.901Z,14.37
2019-04-25T00:35:55.543Z,14.27
2019-04-25T00:38:26.153Z,14.24
2019-04-25T00:40:56.859Z,14.18
2019-04-25T00:43:27.582Z,14.18
2019-04-25T00:45:58.202Z,14.14
2019-04-25T00:48:28.782Z,14.07
2019-04-25T00:50:59.502Z,13.95
2019-04-25T00:53:30.088Z,13.81
2019-04-25T00:56:01.466Z,13.73
2019-04-25T00:58:46.756Z,13.60
2019-04-25T01:01:29.051Z,13.54
2019-04-25T01:03:59.653Z,13.46
2019-04-25T01:06:31.856Z,13.50
2019-04-25T01:09:03.733Z,13.47
2019-04-25T01:11:34.562Z,13.44
2019-04-25T01:14:05.458Z,13.36
2019-04-25T01:16:36.104Z,13.27
2019-04-25T01:19:07.351Z,13.26
2019-04-25T01:21:37.938Z,13.19
2019-04-25T01:24:08.623Z,13.10
2019-04-25T01:26:39.313Z,13.02
2019-04-25T01:29:10.021Z,13.01
2019-04-25T01:31:40.681Z,12.98
2019-04-25T01:34:14.175Z,12.98
2019-04-25T01:36:58.923Z,12.97
2019-04-25T01:39:44.080Z,13.04
2019-04-25T01:42:33.817Z,13.13
2019-04-25T01:45:05.451Z,13.08
2019-04-25T01:47:36.282Z,13.00
2019-04-25T01:50:08.596Z,13.01
2019-04-25T01:52:39.871Z,13.05
2019-04-25T01:55:10.871Z,12.96
2019-04-25T01:57:43.712Z,12.93
2019-04-25T02:00:17.193Z,12.92
2019-04-25T02:02:47.838Z,12.85
2019-04-25T02:05:18.661Z,12.83
2019-04-25T02:07:49.303Z,12.74
2019-04-25T02:10:20.582Z,12.64
2019-04-25T02:12:56.395Z,12.60
2019-04-25T02:15:30.516Z,12.54
2019-04-25T02:18:01.834Z,12.45
2019-04-25T02:20:33.949Z,12.40
2019-04-25T02:23:05.251Z,12.40
2019-04-25T02:25:35.971Z,12.44
2019-04-25T02:28:06.662Z,12.52
2019-04-25T02:30:37.326Z,12.47
2019-04-25T02:33:09.257Z,12.50
2019-04-25T02:35:43.109Z,12.49
2019-04-25T02:38:16.542Z,12.51
2019-04-25T02:40:45.422Z,12.48
2019-04-25T02:43:16.412Z,12.47
2019-04-25T02:46:07.775Z,12.40
2019-04-25T02:48:59.627Z,12.43
2019-04-25T02:51:37.703Z,12.40
2019-04-25T02:54:08.382Z,12.30
2019-04-25T02:56:39.272Z,12.20
2019-04-25T02:59:09.953Z,12.19
2019-04-25T03:01:40.704Z,12.14
2019-04-25T03:04:11.662Z,12.06
2019-04-25T03:06:44.879Z,11.97
2019-04-25T03:09:15.625Z,12.00
2019-04-25T03:11:47.733Z,12.01
2019-04-25T03:14:18.594Z,11.95
2019-04-25T03:16:49.813Z,11.85
2019-04-25T03:19:28.597Z,11.85
2019-04-25T03:22:01.544Z,11.91
2019-04-25T03:24:35.140Z,11.98
2019-04-25T03:27:06.235Z,11.92
2019-04-25T03:29:56.919Z,11.94
2019-04-25T03:32:28.380Z,11.91
2019-04-25T03:35:18.558Z,11.83
2019-04-25T03:37:49.163Z,11.83
2019-04-25T03:40:19.720Z,11.81
2019-04-25T03:42:50.422Z,11.84
2019-04-25T03:45:21.062Z,11.83
2019-04-25T03:47:53.032Z,11.86
2019-04-25T03:50:23.903Z,11.86
2019-04-25T03:52:54.533Z,11.85
2019-04-25T03:55:25.113Z,11.86
2019-04-25T03:57:55.821Z,11.92
2019-04-25T04:00:27.099Z,11.85
2019-04-25T04:02:57.735Z,11.86
2019-04-25T04:05:28.463Z,11.78
2019-04-25T04:07:59.271Z,11.81
2019-04-25T04:10:29.821Z,11.79
2019-04-25T04:13:00.477Z,11.63
2019-04-25T04:15:31.241Z,11.63
2019-04-25T04:18:16.264Z,11.68
2019-04-25T04:21:05.407Z,11.76
2019-04-25T04:23:43.069Z,12.07
2019-04-25T04:26:14.518Z,12.39
2019-04-25T04:28:45.301Z,12.51
2019-04-25T04:31:16.587Z,12.65
2019-04-25T04:33:47.402Z,12.88
2019-04-25T04:36:19.012Z,13.04
2019-04-25T04:38:49.865Z,13.21
2019-04-25T04:41:20.711Z,13.26
2019-04-25T04:43:51.362Z,13.54
2019-04-25T04:46:23.660Z,14.36
2019-04-25T04:48:55.365Z,14.86
2019-04-25T04:51:26.091Z,15.31
2019-04-25T04:53:56.821Z,15.59
2019-04-25T04:56:27.392Z,15.10
2019-04-25T04:58:57.928Z,15.55
2019-04-25T05:01:30.247Z,16.27
2019-04-25T05:04:07.907Z,16.66
2019-04-25T05:06:45.572Z,18.02
2019-04-25T05:09:19.783Z,18.85
2019-04-25T05:11:50.525Z,19.70
2019-04-25T05:14:21.133Z,20.58
2019-04-25T05:16:53.189Z,21.14
2019-04-25T05:19:23.948Z,21.23
2019-04-25T05:21:54.703Z,20.28
2019-04-25T05:24:26.352Z,20.66
2019-04-25T05:26:57.122Z,21.09
2019-04-25T05:29:27.938Z,20.33
2019-04-25T05:31:58.924Z,21.75
2019-04-25T05:34:31.521Z,21.89
2019-04-25T05:37:03.844Z,22.01
2019-04-25T05:39:35.116Z,22.38
2019-04-25T05:42:17.172Z,21.46
2019-04-25T05:44:48.496Z,20.81
2019-04-25T05:47:21.345Z,20.42
2019-04-25T05:49:51.609Z,20.39
2019-04-25T05:52:24.002Z,21.87
2019-04-25T05:54:54.654Z,22.30
2019-04-25T05:57:26.081Z,23.22
2019-04-25T05:59:57.208Z,22.44
2019-04-25T06:02:28.040Z,22.59
2019-04-25T06:04:59.494Z,23.22
2019-04-25T06:07:30.184Z,22.31
2019-04-25T06:10:19.562Z,21.66
2019-04-25T06:12:56.671Z,21.40
2019-04-25T06:15:29.460Z,21.78
2019-04-25T06:18:14.385Z,20.53
2019-04-25T06:20:45.354Z,20.77
2019-04-25T06:23:26.847Z,20.84
2019-04-25T06:25:57.594Z,20.99
2019-04-25T06:28:29.992Z,22.22
2019-04-25T06:31:00.767Z,22.92
2019-04-25T06:33:32.363Z,23.47
2019-04-25T06:36:04.212Z,24.26
2019-04-25T06:38:35.071Z,24.49
2019-04-25T06:41:06.081Z,22.57
2019-04-25T06:43:38.351Z,24.39
2019-04-25T06:46:28.693Z,25.31
2019-04-25T06:49:06.792Z,24.69
2019-04-25T06:51:56.222Z,25.72
2019-04-25T06:54:28.035Z,26.89
2019-04-25T06:56:58.778Z,27.47
2019-04-25T06:59:30.115Z,28.55
2019-04-25T07:02:00.871Z,27.77
2019-04-25T07:04:31.481Z,28.19
2019-04-25T07:07:10.681Z,28.01
2019-04-25T07:09:35.975Z,27.95
2019-04-25T07:12:06.815Z,29.53
2019-04-25T07:14:37.573Z,29.19
2019-04-25T07:17:08.278Z,29.93
2019-04-25T07:19:38.914Z,28.80
2019-04-25T07:22:09.568Z,29.72
2019-04-25T07:24:40.171Z,30.22
2019-04-25T07:27:25.466Z,30.09
2019-04-25T07:30:26.990Z,29.91
2019-04-25T07:32:52.032Z,29.70
2019-04-25T07:35:23.326Z,29.33
2019-04-25T07:37:54.051Z,29.47
2019-04-25T07:40:25.685Z,30.25
2019-04-25T07:42:56.596Z,29.23
2019-04-25T07:45:27.341Z,29.62
2019-04-25T07:47:57.997Z,29.45
2019-04-25T07:50:28.802Z,29.45
2019-04-25T07:52:59.423Z,30.25
2019-04-25T07:55:30.048Z,30.13
2019-04-25T07:58:03.110Z,31.05
2019-04-25T08:00:35.256Z,31.42
2019-04-25T08:03:06.470Z,31.75
2019-04-25T08:05:37.865Z,33.09
2019-04-25T08:08:08.662Z,32.68
2019-04-25T08:11:05.352Z,31.84
2019-04-25T08:13:48.452Z,31.22
2019-04-25T08:16:21.101Z,32.85
2019-04-25T08:18:53.866Z,34.40
2019-04-25T08:21:25.155Z,33.51
2019-04-25T08:23:57.114Z,33.47
2019-04-25T08:26:29.424Z,31.98
2019-04-25T08:29:00.585Z,33.06
2019-04-25T08:31:31.337Z,33.41
2019-04-25T08:34:03.597Z,33.51
2019-04-25T08:36:37.042Z,33.55
2019-04-25T08:39:10.451Z,34.85
2019-04-25T08:41:41.164Z,34.96
2019-04-25T08:44:31.606Z,35.06
2019-04-25T08:47:04.513Z,35.23
2019-04-25T08:49:49.587Z,34.17
2019-04-25T08:52:20.313Z,34.95
2019-04-25T08:55:04.910Z,35.81
2019-04-25T08:57:55.008Z,37.86
2019-04-25T09:00:57.877Z,36.85
2019-04-25T09:03:21.542Z,36.68
2019-04-25T09:05:53.452Z,36.92
2019-04-25T09:08:24.593Z,36.20
2019-04-25T09:10:55.638Z,35.06
2019-04-25T09:13:26.366Z,32.94
2019-04-25T09:15:57.033Z,33.96
2019-04-25T09:18:27.981Z,36.36
2019-04-25T09:20:59.088Z,36.43
2019-04-25T09:23:29.773Z,36.83
2019-04-25T09:26:00.479Z,36.18
2019-04-25T09:28:31.192Z,34.45
2019-04-25T09:31:01.669Z,34.46
2019-04-25T09:33:32.189Z,34.93
2019-04-25T09:36:02.705Z,35.94
2019-04-25T09:38:34.759Z,37.09
2019-04-25T09:41:05.464Z,37.26
2019-04-25T09:43:36.014Z,36.68
2019-04-25T09:46:14.661Z,37.54
2019-04-25T09:48:55.050Z,37.81
2019-04-25T09:51:33.651Z,38.99
2019-04-25T09:54:23.726Z,39.52
2019-04-25T09:56:58.101Z,40.68
2019-04-25T09:59:30.099Z,40.09
2019-04-25T10:02:01.072Z,38.33
2019-04-25T10:04:34.484Z,39.08
2019-04-25T10:07:03.911Z,39.89
2019-04-25T10:09:34.445Z,40.82
2019-04-25T10:12:05.141Z,40.07
2019-04-25T10:15:01.868Z,39.60
2019-04-25T10:17:33.814Z,39.28
2019-04-25T10:20:04.675Z,38.65
2019-04-25T10:22:35.334Z,39.42
2019-04-25T10:25:06.895Z,39.14
2019-04-25T10:27:38.310Z,37.93
2019-04-25T10:30:17.721Z,38.42
2019-04-25T10:32:44.272Z,37.89
2019-04-25T10:35:15.188Z,37.29
2019-04-25T10:37:46.571Z,35.00
2019-04-25T10:40:18.141Z,34.88
2019-04-25T10:42:50.587Z,32.30
2019-04-25T10:45:25.469Z,29.27
2019-04-25T10:47:55.279Z,27.79
2019-04-25T10:50:26.134Z,27.18
2019-04-25T10:52:56.545Z,28.08
2019-04-25T10:55:27.239Z,26.70
2019-04-25T10:57:58.211Z,26.62
2019-04-25T11:00:39.820Z,27.24
2019-04-25T11:03:30.642Z,27.64
2019-04-25T11:06:01.381Z,26.42
2019-04-25T11:08:33.845Z,26.15
2019-04-25T11:11:04.618Z,26.37
2019-04-25T11:13:35.576Z,26.35
2019-04-25T11:16:07.822Z,25.85
2019-04-25T11:18:38.495Z,25.44
2019-04-25T11:21:09.142Z,26.11
2019-04-25T11:23:41.272Z,26.60
2019-04-25T11:26:13.739Z,26.69
2019-04-25T11:28:45.391Z,26.86
2019-04-25T11:31:34.971Z,25.56
2019-04-25T11:34:07.660Z,25.47
2019-04-25T11:36:38.208Z,26.18
2019-04-25T11:39:32.044Z,26.28
2019-04-25T11:42:03.864Z,25.66
2019-04-25T11:44:35.044Z,25.34
2019-04-25T11:47:07.676Z,24.98
2019-04-25T11:49:38.111Z,24.69
2019-04-25T11:52:09.991Z,25.57
2019-04-25T11:54:40.924Z,25.67
2019-04-25T11:57:11.460Z,25.62
2019-04-25T11:59:42.834Z,25.24
2019-04-25T12:02:14.489Z,25.19
2019-04-25T12:04:46.418Z,25.34
2019-04-25T12:07:17.676Z,24.92
2019-04-25T12:09:48.215Z,25.18
2019-04-25T12:12:18.838Z,25.44
2019-04-25T12:14:49.606Z,25.41
2019-04-25T12:17:20.502Z,25.58
2019-04-25T12:19:51.190Z,26.41
2019-04-25T12:22:21.840Z,26.71
2019-04-25T12:24:54.358Z,26.07
2019-04-25T12:27:24.548Z,25.85
2019-04-25T12:29:55.162Z,25.21
2019-04-25T12:32:25.681Z,25.48
2019-04-25T12:34:56.346Z,25.84
2019-04-25T12:37:27.088Z,25.68
2019-04-25T12:39:57.718Z,25.54
2019-04-25T12:42:28.341Z,25.68
2019-04-25T12:45:17.891Z,25.63
2019-04-25T12:47:49.508Z,25.20
2019-04-25T12:50:20.124Z,25.70
2019-04-25T12:52:50.851Z,25.87
2019-04-25T12:55:21.652Z,26.04
2019-04-25T12:57:54.887Z,26.42
2019-04-25T13:00:26.597Z,26.31
2019-04-25T13:02:58.693Z,26.21
2019-04-25T13:05:29.347Z,26.23
2019-04-25T13:08:01.055Z,26.32
2019-04-25T13:10:33.276Z,26.43
2019-04-25T13:13:04.086Z,26.54
2019-04-25T13:15:35.591Z,26.55
2019-04-25T13:18:06.161Z,26.59
2019-04-25T13:20:36.927Z,26.14
2019-04-25T13:23:09.330Z,25.86
2019-04-25T13:25:39.975Z,25.56
2019-04-25T13:28:29.532Z,25.68
2019-04-25T13:31:17.133Z,26.03
2019-04-25T13:33:59.101Z,26.24
2019-04-25T13:36:29.618Z,26.42
2019-04-25T13:39:00.278Z,26.66
2019-04-25T13:41:30.845Z,26.55
2019-04-25T13:44:01.417Z,26.58
2019-04-25T13:46:33.940Z,26.63
2019-04-25T13:49:04.514Z,26.47
2019-04-25T13:51:35.072Z,26.19
2019-04-25T13:54:05.955Z,26.25
2019-04-25T13:56:40.400Z,26.32
2019-04-25T13:59:09.197Z,26.34
2019-04-25T14:01:40.083Z,26.28
2019-04-25T14:04:10.708Z,26.20
2019-04-25T14:06:41.302Z,26.21
2019-04-25T14:09:15.998Z,26.12
2019-04-25T14:11:46.897Z,26.13
2019-04-25T14:14:17.777Z,26.40
2019-04-25T14:17:06.712Z,26.36
2019-04-25T14:19:54.423Z,25.85
2019-04-25T14:22:25.837Z,25.75
2019-04-25T14:24:56.452Z,25.73
2019-04-25T14:27:28.039Z,25.76
2019-04-25T14:29:58.839Z,25.84
2019-04-25T14:32:30.172Z,25.83
2019-04-25T14:35:00.871Z,25.43
2019-04-25T14:37:39.074Z,25.27
2019-04-25T14:40:05.395Z,25.53
2019-04-25T14:42:36.013Z,25.39
2019-04-25T14:45:07.788Z,25.51
2019-04-25T14:47:38.449Z,25.70
2019-04-25T14:50:09.552Z,25.88
2019-04-25T14:52:40.861Z,25.84
2019-04-25T14:55:28.384Z,25.64
2019-04-25T14:57:59.534Z,25.59
2019-04-25T15:00:37.643Z,25.49
2019-04-25T15:03:08.534Z,25.57
2019-04-25T15:05:41.863Z,25.41
2019-04-25T15:08:11.847Z,25.39
2019-04-25T15:10:42.467Z,25.29
2019-04-25T15:13:13.126Z,25.19
2019-04-25T15:15:43.829Z,25.32
2019-04-25T15:18:14.505Z,25.36
2019-04-25T15:20:45.045Z,25.38
2019-04-25T15:23:15.681Z,25.39
2019-04-25T15:25:46.219Z,25.36
2019-04-25T15:28:16.882Z,25.27
2019-04-25T15:30:47.745Z,25.30
2019-04-25T15:33:18.272Z,25.20
2019-04-25T15:35:54.616Z,25.21
2019-04-25T15:38:31.876Z,25.28
2019-04-25T15:41:11.692Z,25.21
2019-04-25T15:43:52.469Z,25.14
2019-04-25T15:46:27.298Z,25.13
2019-04-25T15:48:57.937Z,25.03
2019-04-25T15:51:28.528Z,24.94
2019-04-25T15:53:59.182Z,24.91
2019-04-25T15:56:30.245Z,24.83
2019-04-25T15:59:00.902Z,24.79
2019-04-25T16:01:32.398Z,24.90
2019-04-25T16:04:02.992Z,24.94
2019-04-25T16:06:34.026Z,24.83
2019-04-25T16:09:05.823Z,24.83
2019-04-25T16:11:36.354Z,24.89
2019-04-25T16:14:07.103Z,24.84
2019-04-25T16:16:38.366Z,24.83
2019-04-25T16:19:09.547Z,24.60
2019-04-25T16:21:42.076Z,24.60
2019-04-25T16:24:12.205Z,24.58
2019-04-25T16:26:42.784Z,24.55
2019-04-25T16:29:13.562Z,24.53
2019-04-25T16:31:44.212Z,24.53
2019-04-25T16:34:14.788Z,24.36
2019-04-25T16:36:45.458Z,24.18
2019-04-25T16:39:19.320Z,24.15
2019-04-25T16:41:49.844Z,24.09
2019-04-25T16:44:21.981Z,23.97
2019-04-25T16:46:52.910Z,23.89
2019-04-25T16:49:23.473Z,23.80
2019-04-25T16:51:54.026Z,23.77
2019-04-25T16:54:24.611Z,23.70
2019-04-25T16:56:55.258Z,23.61
2019-04-25T16:59:25.813Z,23.55
2019-04-25T17:01:56.363Z,23.44
2019-04-25T17:04:26.977Z,23.44
2019-04-25T17:06:57.504Z,23.37
2019-04-25T17:09:29.605Z,23.36
2019-04-25T17:12:00.729Z,23.26
2019-04-25T17:14:50.172Z,23.17
2019-04-25T17:17:31.720Z,23.13
2019-04-25T17:20:21.161Z,23.01
2019-04-25T17:22:51.854Z,22.91
2019-04-25T17:25:23.050Z,22.87
2019-04-25T17:27:53.638Z,22.80
2019-04-25T17:30:24.617Z,22.74
2019-04-25T17:33:14.035Z,22.73
2019-04-25T17:36:03.507Z,22.60
2019-04-25T17:38:37.682Z,22.57
2019-04-25T17:41:08.681Z,22.36
2019-04-25T17:43:39.331Z,22.14
2019-04-25T17:46:12.012Z,21.95
2019-04-25T17:48:43.126Z,21.67
2019-04-25T17:51:13.881Z,21.69
2019-04-25T17:53:44.476Z,21.71
2019-04-25T17:56:15.234Z,21.60
2019-04-25T17:58:45.986Z,21.45
2019-04-25T18:01:21.135Z,21.36
2019-04-25T18:03:51.750Z,21.19
2019-04-25T18:06:22.634Z,21.18
2019-04-25T18:08:53.493Z,21.05
2019-04-25T18:11:25.322Z,20.74
2019-04-25T18:13:55.880Z,20.72
2019-04-25T18:16:32.228Z,20.56
2019-04-25T18:19:14.017Z,20.29
2019-04-25T18:21:45.079Z,20.11
2019-04-25T18:24:35.354Z,20.15
2019-04-25T18:27:17.244Z,20.31
2019-04-25T18:29:48.323Z,20.34
2019-04-25T18:32:20.091Z,20.22
2019-04-25T18:34:59.122Z,19.96
2019-04-25T18:37:47.867Z,19.74
2019-04-25T18:40:37.852Z,19.57
2019-04-25T18:43:19.751Z,19.44
2019-04-25T18:45:55.232Z,19.48
2019-04-25T18:48:25.914Z,19.40
2019-04-25T18:50:56.746Z,19.36
2019-04-25T18:53:47.311Z,19.19
2019-04-25T18:56:28.131Z,19.28
2019-04-25T18:59:17.682Z,19.29
2019-04-25T19:02:00.531Z,19.23
2019-04-25T19:04:42.241Z,19.27
2019-04-25T19:07:22.189Z,19.25
2019-04-25T19:09:52.380Z,19.04
2019-04-25T19:12:24.902Z,18.85
2019-04-25T19:14:56.652Z,18.81
2019-04-25T19:17:29.547Z,18.82
2019-04-25T19:20:04.620Z,18.90
2019-04-25T19:22:41.518Z,19.14
2019-04-25T19:25:16.053Z,18.99
2019-04-25T19:27:51.030Z,19.04
2019-04-25T19:30:21.998Z,19.19
2019-04-25T19:32:53.695Z,19.10
2019-04-25T19:35:25.470Z,19.29
2019-04-25T19:37:57.243Z,19.31
2019-04-25T19:40:38.093Z,19.40
2019-04-25T19:43:18.713Z,19.41
2019-04-25T19:45:49.490Z,19.27
2019-04-25T19:48:28.615Z,19.15
2019-04-25T19:50:59.654Z,19.16
2019-04-25T19:53:32.373Z,19.04
2019-04-25T19:56:06.842Z,19.47
2019-04-25T19:58:38.507Z,19.51
2019-04-25T20:01:12.802Z,19.62
2019-04-25T20:03:58.021Z,19.90
2019-04-25T20:06:49.629Z,19.84
2019-04-25T20:09:44.790Z,19.72
2019-04-25T20:12:16.760Z,19.51
2019-04-25T20:14:51.329Z,19.27
2019-04-25T20:17:26.337Z,19.07
2019-04-25T20:19:56.961Z,18.80
2019-04-25T20:22:33.452Z,18.47
2019-04-25T20:25:04.140Z,18.23
2019-04-25T20:27:34.832Z,18.06
2019-04-25T20:30:07.846Z,17.94
2019-04-25T20:32:44.738Z,17.97
2019-04-25T20:35:16.982Z,18.00
2019-04-25T20:37:47.792Z,17.98
2019-04-25T20:40:19.917Z,17.97
2019-04-25T20:42:52.727Z,17.85
2019-04-25T20:45:24.739Z,17.96
2019-04-25T20:47:55.240Z,18.12
2019-04-25T20:50:27.245Z,18.21
2019-04-25T20:52:57.862Z,18.19
2019-04-25T20:55:28.452Z,18.18
2019-04-25T20:57:59.098Z,18.18
2019-04-25T21:00:51.918Z,18.13
2019-04-25T21:03:22.473Z,18.10
2019-04-25T21:05:55.222Z,18.07
2019-04-25T21:08:25.849Z,18.01
2019-04-25T21:10:56.421Z,17.96
2019-04-25T21:13:35.538Z,17.89
2019-04-25T21:16:25.032Z,17.89
2019-04-25T21:19:03.781Z,17.84
2019-04-25T21:21:34.452Z,17.96
2019-04-25T21:24:05.174Z,17.89
2019-04-25T21:26:35.682Z,17.91
2019-04-25T21:29:06.311Z,17.86
2019-04-25T21:31:37.233Z,17.93
2019-04-25T21:34:07.811Z,17.94
2019-04-25T21:36:38.743Z,17.88
2019-04-25T21:39:16.853Z,17.95
2019-04-25T21:41:53.991Z,17.87
2019-04-25T21:44:27.716Z,17.84
2019-04-25T21:47:10.070Z,18.02
2019-04-25T21:49:56.569Z,17.98
2019-04-25T21:52:44.882Z,18.00
2019-04-25T21:55:25.638Z,18.10
2019-04-25T21:58:03.364Z,18.09
2019-04-25T22:00:58.299Z,18.12
2019-04-25T22:06:33.641Z,18.09
2019-04-25T22:09:25.420Z,18.14
2019-04-25T22:11:59.316Z,18.14
2019-04-25T22:14:30.135Z,18.17
2019-04-25T22:17:01.886Z,18.17
2019-04-25T22:19:32.876Z,18.03
2019-04-25T22:22:04.667Z,18.01
2019-04-25T22:24:35.212Z,17.99
2019-04-25T22:27:09.202Z,17.97
2019-04-25T22:29:42.682Z,18.02
2019-04-25T22:32:32.277Z,18.02
2019-04-25T22:35:21.771Z,17.97
2019-04-25T22:37:52.496Z,18.06
2019-04-25T22:40:23.184Z,18.02
2019-04-25T22:42:53.739Z,17.99
2019-04-25T22:45:24.919Z,18.01
2019-04-25T22:47:55.923Z,17.91
2019-04-25T22:50:26.775Z,17.91
2019-04-25T22:52:57.776Z,17.85
2019-04-25T22:55:28.194Z,17.76
2019-04-25T22:57:58.761Z,17.71
2019-04-25T23:00:34.403Z,17.65
2019-04-25T23:03:10.231Z,17.56
2019-04-25T23:05:49.231Z,17.54
2019-04-25T23:08:20.094Z,17.47
2019-04-25T23:10:50.639Z,17.44
2019-04-25T23:13:21.364Z,17.40
2019-04-25T23:15:51.931Z,17.37
2019-04-25T23:18:22.852Z,17.33
2019-04-25T23:20:53.494Z,17.29
2019-04-25T23:23:24.231Z,17.33
2019-04-25T23:26:05.161Z,17.28
2019-04-25T23:28:40.159Z,17.23
2019-04-25T23:31:14.791Z,17.28
2019-04-25T23:33:45.884Z,17.31
2019-04-25T23:36:16.793Z,17.27
2019-04-25T23:38:47.494Z,17.15
2019-04-25T23:41:18.388Z,17.09
2019-04-25T23:43:48.953Z,17.16
2019-04-25T23:46:19.598Z,17.04
2019-04-25T23:48:50.126Z,17.02
2019-04-25T23:51:20.776Z,17.01
2019-04-25T23:53:51.586Z,17.10
2019-04-25T23:56:22.178Z,17.15
2019-04-25T23:58:52.943Z,17.16
